sensor_id;sensor_type;location;lat;lon;timestamp;P1;durP1;ratioP1;P2;durP2;ratioP2
151;SDS011;68;48.792;9.164;2023-03-24T00:00:48;6.20;;;4.93;;
151;SDS011;68;48.792;9.164;2023-03-24T00:03:15;6.10;;;5.10;;
151;SDS011;68;48.792;9.164;2023-03-24T00:05:42;7.47;;;4.72;;
151;SDS011;68;48.792;9.164;2023-03-24T00:08:09;11.07;;;4.90;;
151;SDS011;68;48.792;9.164;2023-03-24T00:10:36;5.30;;;4.55;;
151;SDS011;68;48.792;9.164;2023-03-24T00:13:05;7.45;;;4.80;;
151;SDS011;68;48.792;9.164;2023-03-24T00:15:32;7.65;;;4.72;;
151;SDS011;68;48.792;9.164;2023-03-24T00:18:00;6.70;;;5.10;;
151;SDS011;68;48.792;9.164;2023-03-24T00:20:27;5.27;;;4.20;;
151;SDS011;68;48.792;9.164;2023-03-24T00:22:54;11.50;;;4.65;;
151;SDS011;68;48.792;9.164;2023-03-24T00:25:23;6.20;;;4.40;;
151;SDS011;68;48.792;9.164;2023-03-24T00:27:53;6.30;;;4.43;;
151;SDS011;68;48.792;9.164;2023-03-24T00:30:22;6.50;;;4.73;;
151;SDS011;68;48.792;9.164;2023-03-24T00:32:50;6.28;;;4.53;;
151;SDS011;68;48.792;9.164;2023-03-24T00:35:17;5.60;;;4.55;;
151;SDS011;68;48.792;9.164;2023-03-24T00:37:44;7.35;;;4.20;;
151;SDS011;68;48.792;9.164;2023-03-24T00:40:12;6.43;;;4.70;;
151;SDS011;68;48.792;9.164;2023-03-24T00:42:41;6.85;;;4.05;;
151;SDS011;68;48.792;9.164;2023-03-24T00:45:10;6.28;;;4.35;;
151;SDS011;68;48.792;9.164;2023-03-24T00:47:40;7.45;;;4.63;;
151;SDS011;68;48.792;9.164;2023-03-24T00:50:11;6.07;;;4.30;;
151;SDS011;68;48.792;9.164;2023-03-24T00:52:41;5.50;;;4.60;;
151;SDS011;68;48.792;9.164;2023-03-24T00:55:12;5.53;;;4.88;;
151;SDS011;68;48.792;9.164;2023-03-24T00:57:40;6.22;;;4.20;;
151;SDS011;68;48.792;9.164;2023-03-24T01:00:14;6.60;;;4.60;;
151;SDS011;68;48.792;9.164;2023-03-24T01:02:44;5.78;;;4.20;;
151;SDS011;68;48.792;9.164;2023-03-24T01:05:12;7.18;;;4.43;;
151;SDS011;68;48.792;9.164;2023-03-24T01:07:41;5.40;;;4.25;;
151;SDS011;68;48.792;9.164;2023-03-24T01:10:10;6.45;;;4.38;;
151;SDS011;68;48.792;9.164;2023-03-24T01:12:38;6.30;;;4.50;;
151;SDS011;68;48.792;9.164;2023-03-24T01:15:06;11.50;;;4.45;;
151;SDS011;68;48.792;9.164;2023-03-24T01:17:39;7.13;;;4.30;;
151;SDS011;68;48.792;9.164;2023-03-24T01:20:08;6.20;;;4.80;;
151;SDS011;68;48.792;9.164;2023-03-24T01:22:36;7.07;;;4.55;;
151;SDS011;68;48.792;9.164;2023-03-24T01:25:05;5.50;;;4.53;;
151;SDS011;68;48.792;9.164;2023-03-24T01:27:33;5.80;;;4.35;;
151;SDS011;68;48.792;9.164;2023-03-24T01:30:01;5.38;;;4.70;;
151;SDS011;68;48.792;9.164;2023-03-24T01:32:29;5.82;;;4.03;;
151;SDS011;68;48.792;9.164;2023-03-24T01:34:57;5.72;;;4.28;;
151;SDS011;68;48.792;9.164;2023-03-24T01:37:25;4.72;;;4.22;;
151;SDS011;68;48.792;9.164;2023-03-24T01:39:52;4.72;;;4.03;;
151;SDS011;68;48.792;9.164;2023-03-24T01:42:19;6.33;;;4.57;;
151;SDS011;68;48.792;9.164;2023-03-24T01:44:49;5.30;;;4.20;;
151;SDS011;68;48.792;9.164;2023-03-24T01:47:19;5.45;;;4.50;;
151;SDS011;68;48.792;9.164;2023-03-24T01:49:46;6.32;;;4.57;;
151;SDS011;68;48.792;9.164;2023-03-24T01:52:18;8.00;;;4.40;;
151;SDS011;68;48.792;9.164;2023-03-24T01:54:56;5.10;;;4.50;;
151;SDS011;68;48.792;9.164;2023-03-24T01:57:26;6.10;;;4.40;;
151;SDS011;68;48.792;9.164;2023-03-24T01:59:56;5.72;;;4.25;;
151;SDS011;68;48.792;9.164;2023-03-24T02:02:26;5.60;;;4.13;;
151;SDS011;68;48.792;9.164;2023-03-24T02:04:59;7.05;;;4.00;;
151;SDS011;68;48.792;9.164;2023-03-24T02:07:30;6.63;;;4.50;;
151;SDS011;68;48.792;9.164;2023-03-24T02:10:00;7.05;;;4.70;;
151;SDS011;68;48.792;9.164;2023-03-24T02:12:29;7.15;;;4.30;;
151;SDS011;68;48.792;9.164;2023-03-24T02:14:58;4.68;;;4.07;;
151;SDS011;68;48.792;9.164;2023-03-24T02:17:29;5.50;;;4.28;;
151;SDS011;68;48.792;9.164;2023-03-24T02:20:14;5.78;;;4.32;;
151;SDS011;68;48.792;9.164;2023-03-24T02:26:10;4.93;;;4.13;;
151;SDS011;68;48.792;9.164;2023-03-24T02:29:15;5.78;;;4.00;;
151;SDS011;68;48.792;9.164;2023-03-24T02:35:42;6.18;;;4.15;;
151;SDS011;68;48.792;9.164;2023-03-24T02:41:29;5.00;;;4.10;;
151;SDS011;68;48.792;9.164;2023-03-24T02:44:01;4.63;;;3.70;;
151;SDS011;68;48.792;9.164;2023-03-24T02:46:34;4.95;;;3.65;;
151;SDS011;68;48.792;9.164;2023-03-24T02:49:07;10.40;;;4.20;;
151;SDS011;68;48.792;9.164;2023-03-24T02:51:42;5.90;;;4.15;;
151;SDS011;68;48.792;9.164;2023-03-24T02:54:15;3.70;;;3.50;;
151;SDS011;68;48.792;9.164;2023-03-24T02:56:51;4.85;;;4.07;;
151;SDS011;68;48.792;9.164;2023-03-24T02:59:23;4.32;;;3.60;;
151;SDS011;68;48.792;9.164;2023-03-24T03:01:57;6.60;;;4.25;;
151;SDS011;68;48.792;9.164;2023-03-24T03:04:28;5.90;;;3.70;;
151;SDS011;68;48.792;9.164;2023-03-24T03:06:59;4.95;;;3.88;;
151;SDS011;68;48.792;9.164;2023-03-24T03:09:30;4.65;;;3.63;;
151;SDS011;68;48.792;9.164;2023-03-24T03:12:00;6.23;;;3.70;;
151;SDS011;68;48.792;9.164;2023-03-24T03:14:33;5.20;;;3.75;;
151;SDS011;68;48.792;9.164;2023-03-24T03:17:04;4.63;;;3.97;;
151;SDS011;68;48.792;9.164;2023-03-24T03:19:36;4.85;;;3.80;;
151;SDS011;68;48.792;9.164;2023-03-24T03:22:07;4.30;;;3.80;;
151;SDS011;68;48.792;9.164;2023-03-24T03:24:40;5.00;;;3.50;;
151;SDS011;68;48.792;9.164;2023-03-24T03:27:13;5.13;;;3.90;;
151;SDS011;68;48.792;9.164;2023-03-24T03:29:43;4.95;;;4.18;;
151;SDS011;68;48.792;9.164;2023-03-24T03:32:13;5.32;;;3.65;;
151;SDS011;68;48.792;9.164;2023-03-24T03:34:46;6.00;;;3.65;;
151;SDS011;68;48.792;9.164;2023-03-24T03:37:19;4.30;;;3.45;;
151;SDS011;68;48.792;9.164;2023-03-24T03:39:53;4.40;;;3.63;;
151;SDS011;68;48.792;9.164;2023-03-24T03:42:25;8.10;;;3.57;;
151;SDS011;68;48.792;9.164;2023-03-24T03:44:52;4.82;;;3.70;;
151;SDS011;68;48.792;9.164;2023-03-24T03:47:19;5.85;;;3.67;;
151;SDS011;68;48.792;9.164;2023-03-24T03:49:47;6.13;;;3.70;;
151;SDS011;68;48.792;9.164;2023-03-24T03:52:14;5.75;;;3.70;;
151;SDS011;68;48.792;9.164;2023-03-24T03:54:42;4.00;;;3.43;;
151;SDS011;68;48.792;9.164;2023-03-24T03:57:09;5.65;;;3.50;;
151;SDS011;68;48.792;9.164;2023-03-24T03:59:39;13.77;;;4.05;;
151;SDS011;68;48.792;9.164;2023-03-24T04:02:09;8.07;;;4.00;;
151;SDS011;68;48.792;9.164;2023-03-24T04:04:56;4.73;;;3.70;;
151;SDS011;68;48.792;9.164;2023-03-24T04:07:38;4.00;;;3.50;;
151;SDS011;68;48.792;9.164;2023-03-24T04:10:20;5.57;;;3.53;;
151;SDS011;68;48.792;9.164;2023-03-24T04:12:59;4.70;;;3.73;;
151;SDS011;68;48.792;9.164;2023-03-24T04:15:37;3.67;;;3.43;;
151;SDS011;68;48.792;9.164;2023-03-24T04:18:14;4.20;;;3.70;;
151;SDS011;68;48.792;9.164;2023-03-24T04:21:01;4.75;;;3.30;;
151;SDS011;68;48.792;9.164;2023-03-24T04:23:40;4.70;;;3.53;;
151;SDS011;68;48.792;9.164;2023-03-24T04:26:15;4.47;;;3.73;;
151;SDS011;68;48.792;9.164;2023-03-24T04:28:52;5.33;;;3.90;;
151;SDS011;68;48.792;9.164;2023-03-24T04:31:30;7.10;;;4.17;;
151;SDS011;68;48.792;9.164;2023-03-24T04:34:02;4.27;;;3.43;;
151;SDS011;68;48.792;9.164;2023-03-24T04:36:34;5.78;;;3.50;;
151;SDS011;68;48.792;9.164;2023-03-24T04:39:07;6.17;;;3.73;;
151;SDS011;68;48.792;9.164;2023-03-24T04:41:36;3.75;;;3.55;;
151;SDS011;68;48.792;9.164;2023-03-24T04:44:05;5.13;;;3.80;;
151;SDS011;68;48.792;9.164;2023-03-24T04:46:33;4.00;;;3.50;;
151;SDS011;68;48.792;9.164;2023-03-24T04:49:00;4.60;;;3.73;;
151;SDS011;68;48.792;9.164;2023-03-24T04:51:28;5.40;;;3.60;;
151;SDS011;68;48.792;9.164;2023-03-24T04:53:55;5.95;;;3.63;;
151;SDS011;68;48.792;9.164;2023-03-24T04:56:26;4.57;;;3.55;;
151;SDS011;68;48.792;9.164;2023-03-24T04:58:56;5.47;;;3.70;;
151;SDS011;68;48.792;9.164;2023-03-24T05:01:23;3.80;;;3.40;;
151;SDS011;68;48.792;9.164;2023-03-24T05:03:55;6.85;;;3.60;;
151;SDS011;68;48.792;9.164;2023-03-24T05:06:23;6.77;;;3.70;;
151;SDS011;68;48.792;9.164;2023-03-24T05:08:50;7.00;;;3.43;;
151;SDS011;68;48.792;9.164;2023-03-24T05:11:17;4.67;;;3.40;;
151;SDS011;68;48.792;9.164;2023-03-24T05:13:45;7.50;;;3.60;;
151;SDS011;68;48.792;9.164;2023-03-24T05:16:12;4.40;;;3.40;;
151;SDS011;68;48.792;9.164;2023-03-24T05:18:39;5.27;;;3.43;;
151;SDS011;68;48.792;9.164;2023-03-24T05:21:08;5.07;;;3.40;;
151;SDS011;68;48.792;9.164;2023-03-24T05:23:35;5.25;;;3.42;;
151;SDS011;68;48.792;9.164;2023-03-24T05:26:02;5.32;;;3.33;;
151;SDS011;68;48.792;9.164;2023-03-24T05:28:29;4.90;;;3.70;;
151;SDS011;68;48.792;9.164;2023-03-24T05:30:56;4.32;;;3.40;;
151;SDS011;68;48.792;9.164;2023-03-24T05:33:24;4.07;;;3.30;;
151;SDS011;68;48.792;9.164;2023-03-24T05:35:51;4.50;;;3.63;;
151;SDS011;68;48.792;9.164;2023-03-24T05:38:19;5.22;;;3.65;;
151;SDS011;68;48.792;9.164;2023-03-24T05:40:46;6.30;;;4.03;;
151;SDS011;68;48.792;9.164;2023-03-24T05:43:12;5.10;;;3.87;;
151;SDS011;68;48.792;9.164;2023-03-24T05:45:39;5.80;;;3.90;;
151;SDS011;68;48.792;9.164;2023-03-24T05:48:06;4.73;;;4.00;;
151;SDS011;68;48.792;9.164;2023-03-24T05:50:33;5.68;;;4.00;;
151;SDS011;68;48.792;9.164;2023-03-24T05:52:59;5.38;;;3.70;;
151;SDS011;68;48.792;9.164;2023-03-24T05:55:28;6.30;;;4.17;;
151;SDS011;68;48.792;9.164;2023-03-24T05:57:56;5.82;;;4.35;;
151;SDS011;68;48.792;9.164;2023-03-24T06:00:26;5.10;;;4.13;;
151;SDS011;68;48.792;9.164;2023-03-24T06:02:53;5.55;;;3.80;;
151;SDS011;68;48.792;9.164;2023-03-24T06:05:20;7.20;;;4.00;;
151;SDS011;68;48.792;9.164;2023-03-24T06:07:47;5.55;;;4.45;;
151;SDS011;68;48.792;9.164;2023-03-24T06:10:14;4.95;;;3.90;;
151;SDS011;68;48.792;9.164;2023-03-24T06:12:43;4.37;;;4.07;;
151;SDS011;68;48.792;9.164;2023-03-24T06:15:10;5.30;;;4.07;;
151;SDS011;68;48.792;9.164;2023-03-24T06:17:41;5.65;;;4.15;;
151;SDS011;68;48.792;9.164;2023-03-24T06:20:10;6.30;;;4.60;;
151;SDS011;68;48.792;9.164;2023-03-24T06:22:40;4.97;;;4.00;;
151;SDS011;68;48.792;9.164;2023-03-24T06:25:09;4.53;;;4.13;;
151;SDS011;68;48.792;9.164;2023-03-24T06:27:36;5.03;;;4.20;;
151;SDS011;68;48.792;9.164;2023-03-24T06:30:08;4.80;;;4.00;;
151;SDS011;68;48.792;9.164;2023-03-24T06:32:36;5.18;;;4.45;;
151;SDS011;68;48.792;9.164;2023-03-24T06:35:03;5.20;;;4.73;;
151;SDS011;68;48.792;9.164;2023-03-24T06:37:31;5.57;;;4.50;;
151;SDS011;68;48.792;9.164;2023-03-24T06:39:58;4.90;;;4.40;;
151;SDS011;68;48.792;9.164;2023-03-24T06:42:25;5.40;;;4.63;;
151;SDS011;68;48.792;9.164;2023-03-24T06:44:52;6.07;;;4.95;;
151;SDS011;68;48.792;9.164;2023-03-24T06:47:20;5.85;;;4.65;;
151;SDS011;68;48.792;9.164;2023-03-24T06:49:47;6.70;;;5.00;;
151;SDS011;68;48.792;9.164;2023-03-24T06:52:13;7.45;;;4.97;;
151;SDS011;68;48.792;9.164;2023-03-24T06:54:40;13.07;;;5.60;;
151;SDS011;68;48.792;9.164;2023-03-24T06:57:07;6.18;;;4.88;;
151;SDS011;68;48.792;9.164;2023-03-24T06:59:34;6.93;;;5.32;;
151;SDS011;68;48.792;9.164;2023-03-24T07:02:00;5.95;;;4.45;;
151;SDS011;68;48.792;9.164;2023-03-24T07:04:29;6.40;;;4.80;;
151;SDS011;68;48.792;9.164;2023-03-24T07:07:00;6.68;;;5.20;;
151;SDS011;68;48.792;9.164;2023-03-24T07:09:27;6.50;;;5.10;;
151;SDS011;68;48.792;9.164;2023-03-24T07:11:54;5.50;;;5.20;;
151;SDS011;68;48.792;9.164;2023-03-24T07:14:21;8.35;;;5.22;;
151;SDS011;68;48.792;9.164;2023-03-24T07:16:50;11.15;;;5.28;;
151;SDS011;68;48.792;9.164;2023-03-24T07:19:17;6.22;;;4.72;;
151;SDS011;68;48.792;9.164;2023-03-24T07:21:45;6.50;;;5.20;;
151;SDS011;68;48.792;9.164;2023-03-24T07:24:14;15.40;;;5.50;;
151;SDS011;68;48.792;9.164;2023-03-24T07:26:40;8.10;;;5.18;;
151;SDS011;68;48.792;9.164;2023-03-24T07:29:07;6.28;;;5.05;;
151;SDS011;68;48.792;9.164;2023-03-24T07:31:34;6.68;;;4.90;;
151;SDS011;68;48.792;9.164;2023-03-24T07:34:02;6.05;;;4.85;;
151;SDS011;68;48.792;9.164;2023-03-24T07:36:30;6.93;;;5.00;;
151;SDS011;68;48.792;9.164;2023-03-24T07:38:58;5.90;;;4.97;;
151;SDS011;68;48.792;9.164;2023-03-24T07:41:25;6.72;;;5.18;;
151;SDS011;68;48.792;9.164;2023-03-24T07:43:53;5.97;;;4.90;;
151;SDS011;68;48.792;9.164;2023-03-24T07:46:20;9.27;;;5.88;;
151;SDS011;68;48.792;9.164;2023-03-24T07:48:47;8.68;;;6.28;;
151;SDS011;68;48.792;9.164;2023-03-24T07:51:14;10.90;;;6.18;;
151;SDS011;68;48.792;9.164;2023-03-24T07:53:42;11.63;;;6.38;;
151;SDS011;68;48.792;9.164;2023-03-24T07:56:10;10.88;;;5.85;;
151;SDS011;68;48.792;9.164;2023-03-24T07:58:37;7.78;;;5.88;;
151;SDS011;68;48.792;9.164;2023-03-24T08:01:05;8.82;;;6.07;;
151;SDS011;68;48.792;9.164;2023-03-24T08:03:33;8.68;;;6.13;;
151;SDS011;68;48.792;9.164;2023-03-24T08:06:00;7.05;;;5.85;;
151;SDS011;68;48.792;9.164;2023-03-24T08:08:28;9.82;;;6.20;;
151;SDS011;68;48.792;9.164;2023-03-24T08:10:55;10.30;;;6.80;;
151;SDS011;68;48.792;9.164;2023-03-24T08:13:23;9.27;;;6.72;;
151;SDS011;68;48.792;9.164;2023-03-24T08:15:50;8.45;;;5.97;;
151;SDS011;68;48.792;9.164;2023-03-24T08:18:17;12.88;;;6.55;;
151;SDS011;68;48.792;9.164;2023-03-24T08:20:45;11.40;;;7.28;;
151;SDS011;68;48.792;9.164;2023-03-24T08:23:12;10.80;;;6.82;;
151;SDS011;68;48.792;9.164;2023-03-24T08:25:39;9.05;;;6.10;;
151;SDS011;68;48.792;9.164;2023-03-24T08:28:06;8.23;;;6.07;;
151;SDS011;68;48.792;9.164;2023-03-24T08:30:34;8.13;;;6.55;;
151;SDS011;68;48.792;9.164;2023-03-24T08:33:01;9.82;;;7.07;;
151;SDS011;68;48.792;9.164;2023-03-24T08:35:29;15.40;;;6.85;;
151;SDS011;68;48.792;9.164;2023-03-24T08:37:57;7.00;;;6.20;;
151;SDS011;68;48.792;9.164;2023-03-24T08:40:25;9.70;;;6.75;;
151;SDS011;68;48.792;9.164;2023-03-24T08:42:53;9.05;;;6.22;;
151;SDS011;68;48.792;9.164;2023-03-24T08:45:23;10.13;;;6.43;;
151;SDS011;68;48.792;9.164;2023-03-24T08:47:53;8.93;;;6.93;;
151;SDS011;68;48.792;9.164;2023-03-24T08:50:23;9.15;;;6.47;;
151;SDS011;68;48.792;9.164;2023-03-24T08:52:52;9.68;;;6.00;;
151;SDS011;68;48.792;9.164;2023-03-24T08:55:19;6.70;;;6.00;;
151;SDS011;68;48.792;9.164;2023-03-24T08:57:47;9.48;;;6.65;;
151;SDS011;68;48.792;9.164;2023-03-24T09:00:15;7.53;;;5.70;;
151;SDS011;68;48.792;9.164;2023-03-24T09:02:43;7.07;;;5.65;;
151;SDS011;68;48.792;9.164;2023-03-24T09:05:12;7.47;;;4.90;;
151;SDS011;68;48.792;9.164;2023-03-24T09:07:42;5.07;;;4.68;;
151;SDS011;68;48.792;9.164;2023-03-24T09:10:09;7.30;;;5.25;;
151;SDS011;68;48.792;9.164;2023-03-24T09:12:36;7.38;;;4.65;;
151;SDS011;68;48.792;9.164;2023-03-24T09:15:04;5.97;;;4.65;;
151;SDS011;68;48.792;9.164;2023-03-24T09:17:32;5.68;;;4.93;;
151;SDS011;68;48.792;9.164;2023-03-24T09:19:59;5.30;;;4.47;;
151;SDS011;68;48.792;9.164;2023-03-24T09:22:33;4.60;;;4.30;;
151;SDS011;68;48.792;9.164;2023-03-24T09:25:02;5.35;;;4.80;;
151;SDS011;68;48.792;9.164;2023-03-24T09:27:29;4.90;;;4.45;;
151;SDS011;68;48.792;9.164;2023-03-24T09:29:56;6.38;;;5.03;;
151;SDS011;68;48.792;9.164;2023-03-24T09:32:23;4.78;;;4.40;;
151;SDS011;68;48.792;9.164;2023-03-24T09:34:50;4.20;;;3.90;;
151;SDS011;68;48.792;9.164;2023-03-24T09:37:16;4.67;;;4.27;;
151;SDS011;68;48.792;9.164;2023-03-24T09:39:45;9.18;;;6.70;;
151;SDS011;68;48.792;9.164;2023-03-24T09:42:14;8.20;;;4.57;;
151;SDS011;68;48.792;9.164;2023-03-24T09:44:50;4.32;;;4.03;;
151;SDS011;68;48.792;9.164;2023-03-24T09:47:23;6.57;;;4.53;;
151;SDS011;68;48.792;9.164;2023-03-24T09:49:53;6.63;;;4.67;;
151;SDS011;68;48.792;9.164;2023-03-24T09:52:25;11.27;;;4.07;;
151;SDS011;68;48.792;9.164;2023-03-24T09:54:58;6.67;;;4.20;;
151;SDS011;68;48.792;9.164;2023-03-24T09:57:27;5.40;;;4.50;;
151;SDS011;68;48.792;9.164;2023-03-24T10:00:02;7.10;;;4.73;;
151;SDS011;68;48.792;9.164;2023-03-24T10:02:41;4.40;;;3.90;;
151;SDS011;68;48.792;9.164;2023-03-24T10:05:11;6.13;;;4.53;;
151;SDS011;68;48.792;9.164;2023-03-24T10:07:42;5.13;;;4.20;;
151;SDS011;68;48.792;9.164;2023-03-24T10:10:17;5.00;;;4.20;;
151;SDS011;68;48.792;9.164;2023-03-24T10:12:51;3.80;;;3.60;;
151;SDS011;68;48.792;9.164;2023-03-24T10:15:24;5.00;;;4.03;;
151;SDS011;68;48.792;9.164;2023-03-24T10:17:56;5.50;;;4.30;;
151;SDS011;68;48.792;9.164;2023-03-24T10:20:32;3.53;;;3.30;;
151;SDS011;68;48.792;9.164;2023-03-24T10:23:07;4.60;;;3.30;;
151;SDS011;68;48.792;9.164;2023-03-24T10:25:45;4.60;;;3.77;;
151;SDS011;68;48.792;9.164;2023-03-24T10:28:18;5.20;;;3.33;;
151;SDS011;68;48.792;9.164;2023-03-24T10:30:46;3.70;;;3.50;;
151;SDS011;68;48.792;9.164;2023-03-24T10:33:14;5.97;;;3.33;;
151;SDS011;68;48.792;9.164;2023-03-24T10:35:44;4.60;;;3.50;;
151;SDS011;68;48.792;9.164;2023-03-24T10:38:16;4.13;;;3.17;;
151;SDS011;68;48.792;9.164;2023-03-24T10:40:46;4.10;;;3.63;;
151;SDS011;68;48.792;9.164;2023-03-24T10:43:14;3.33;;;2.90;;
151;SDS011;68;48.792;9.164;2023-03-24T10:45:43;3.50;;;3.00;;
151;SDS011;68;48.792;9.164;2023-03-24T10:48:12;3.33;;;2.63;;
151;SDS011;68;48.792;9.164;2023-03-24T10:50:58;6.10;;;2.90;;
151;SDS011;68;48.792;9.164;2023-03-24T10:53:25;3.40;;;2.70;;
151;SDS011;68;48.792;9.164;2023-03-24T10:55:53;2.63;;;2.47;;
151;SDS011;68;48.792;9.164;2023-03-24T10:58:24;3.23;;;2.80;;
151;SDS011;68;48.792;9.164;2023-03-24T11:00:55;2.80;;;2.60;;
151;SDS011;68;48.792;9.164;2023-03-24T11:03:25;3.23;;;2.47;;
151;SDS011;68;48.792;9.164;2023-03-24T11:05:58;3.00;;;2.80;;
151;SDS011;68;48.792;9.164;2023-03-24T11:08:27;3.00;;;2.80;;
151;SDS011;68;48.792;9.164;2023-03-24T11:11:00;2.90;;;2.70;;
151;SDS011;68;48.792;9.164;2023-03-24T11:13:39;4.60;;;3.43;;
151;SDS011;68;48.792;9.164;2023-03-24T11:16:09;2.70;;;2.60;;
151;SDS011;68;48.792;9.164;2023-03-24T11:18:38;3.13;;;2.93;;
151;SDS011;68;48.792;9.164;2023-03-24T11:21:20;2.60;;;2.40;;
151;SDS011;68;48.792;9.164;2023-03-24T11:23:47;2.70;;;2.43;;
151;SDS011;68;48.792;9.164;2023-03-24T11:26:15;2.63;;;2.40;;
151;SDS011;68;48.792;9.164;2023-03-24T11:28:46;2.77;;;2.57;;
151;SDS011;68;48.792;9.164;2023-03-24T11:31:19;4.13;;;3.23;;
151;SDS011;68;48.792;9.164;2023-03-24T11:33:50;3.73;;;2.90;;
151;SDS011;68;48.792;9.164;2023-03-24T11:36:39;3.10;;;2.60;;
151;SDS011;68;48.792;9.164;2023-03-24T11:39:12;3.00;;;2.53;;
151;SDS011;68;48.792;9.164;2023-03-24T11:41:43;3.20;;;2.70;;
151;SDS011;68;48.792;9.164;2023-03-24T11:44:17;7.70;;;2.60;;
151;SDS011;68;48.792;9.164;2023-03-24T11:46:47;2.53;;;2.37;;
151;SDS011;68;48.792;9.164;2023-03-24T11:49:18;2.37;;;2.23;;
151;SDS011;68;48.792;9.164;2023-03-24T11:51:49;3.43;;;2.30;;
151;SDS011;68;48.792;9.164;2023-03-24T11:54:19;2.30;;;2.10;;
151;SDS011;68;48.792;9.164;2023-03-24T11:56:51;2.30;;;2.10;;
151;SDS011;68;48.792;9.164;2023-03-24T11:59:26;3.60;;;2.10;;
151;SDS011;68;48.792;9.164;2023-03-24T12:02:00;2.00;;;1.90;;
151;SDS011;68;48.792;9.164;2023-03-24T12:04:40;4.73;;;3.37;;
151;SDS011;68;48.792;9.164;2023-03-24T12:10:20;2.07;;;1.93;;
151;SDS011;68;48.792;9.164;2023-03-24T12:12:58;2.17;;;1.90;;
151;SDS011;68;48.792;9.164;2023-03-24T12:15:32;3.07;;;2.37;;
151;SDS011;68;48.792;9.164;2023-03-24T12:18:24;1.93;;;1.90;;
151;SDS011;68;48.792;9.164;2023-03-24T12:21:02;2.20;;;1.97;;
151;SDS011;68;48.792;9.164;2023-03-24T12:23:39;2.00;;;1.90;;
151;SDS011;68;48.792;9.164;2023-03-24T12:26:14;3.17;;;2.27;;
151;SDS011;68;48.792;9.164;2023-03-24T12:28:49;1.97;;;1.90;;
151;SDS011;68;48.792;9.164;2023-03-24T12:31:26;1.90;;;1.90;;
151;SDS011;68;48.792;9.164;2023-03-24T12:34:09;2.30;;;1.80;;
151;SDS011;68;48.792;9.164;2023-03-24T12:36:54;1.97;;;1.90;;
151;SDS011;68;48.792;9.164;2023-03-24T12:39:27;2.50;;;2.23;;
151;SDS011;68;48.792;9.164;2023-03-24T12:42:00;3.47;;;2.00;;
151;SDS011;68;48.792;9.164;2023-03-24T12:47:36;1.87;;;1.77;;
151;SDS011;68;48.792;9.164;2023-03-24T12:50:16;3.43;;;1.67;;
151;SDS011;68;48.792;9.164;2023-03-24T12:52:55;1.70;;;1.70;;
151;SDS011;68;48.792;9.164;2023-03-24T12:55:41;3.00;;;2.30;;
151;SDS011;68;48.792;9.164;2023-03-24T12:58:11;2.07;;;1.93;;
151;SDS011;68;48.792;9.164;2023-03-24T13:00:43;2.13;;;1.97;;
151;SDS011;68;48.792;9.164;2023-03-24T13:03:22;1.87;;;1.80;;
151;SDS011;68;48.792;9.164;2023-03-24T13:05:56;2.10;;;1.63;;
151;SDS011;68;48.792;9.164;2023-03-24T13:08:29;1.87;;;1.77;;
151;SDS011;68;48.792;9.164;2023-03-24T13:10:57;1.90;;;1.73;;
151;SDS011;68;48.792;9.164;2023-03-24T13:13:30;1.70;;;1.70;;
151;SDS011;68;48.792;9.164;2023-03-24T13:16:01;2.00;;;1.93;;
151;SDS011;68;48.792;9.164;2023-03-24T13:18:35;2.33;;;1.90;;
151;SDS011;68;48.792;9.164;2023-03-24T13:21:05;2.17;;;1.70;;
151;SDS011;68;48.792;9.164;2023-03-24T13:23:38;1.70;;;1.60;;
151;SDS011;68;48.792;9.164;2023-03-24T13:26:10;1.80;;;1.70;;
151;SDS011;68;48.792;9.164;2023-03-24T13:28:47;2.30;;;2.20;;
151;SDS011;68;48.792;9.164;2023-03-24T13:31:21;2.30;;;2.00;;
151;SDS011;68;48.792;9.164;2023-03-24T13:33:52;1.80;;;1.70;;
151;SDS011;68;48.792;9.164;2023-03-24T13:36:29;1.80;;;1.70;;
151;SDS011;68;48.792;9.164;2023-03-24T13:39:07;2.43;;;2.00;;
151;SDS011;68;48.792;9.164;2023-03-24T13:41:39;2.40;;;2.20;;
151;SDS011;68;48.792;9.164;2023-03-24T13:44:07;2.13;;;1.90;;
151;SDS011;68;48.792;9.164;2023-03-24T13:46:41;2.20;;;2.00;;
151;SDS011;68;48.792;9.164;2023-03-24T13:49:11;1.93;;;1.83;;
151;SDS011;68;48.792;9.164;2023-03-24T13:51:42;2.50;;;2.10;;
151;SDS011;68;48.792;9.164;2023-03-24T13:54:12;5.47;;;3.80;;
151;SDS011;68;48.792;9.164;2023-03-24T13:56:44;2.33;;;2.10;;
151;SDS011;68;48.792;9.164;2023-03-24T13:59:24;2.37;;;2.10;;
151;SDS011;68;48.792;9.164;2023-03-24T14:04:49;2.73;;;2.00;;
151;SDS011;68;48.792;9.164;2023-03-24T14:07:29;2.70;;;1.90;;
151;SDS011;68;48.792;9.164;2023-03-24T14:10:27;2.43;;;2.00;;
151;SDS011;68;48.792;9.164;2023-03-24T14:13:03;3.30;;;2.00;;
151;SDS011;68;48.792;9.164;2023-03-24T14:15:43;3.20;;;2.30;;
151;SDS011;68;48.792;9.164;2023-03-24T14:18:14;3.33;;;2.30;;
151;SDS011;68;48.792;9.164;2023-03-24T14:21:03;3.40;;;2.40;;
151;SDS011;68;48.792;9.164;2023-03-24T14:23:33;3.10;;;2.30;;
151;SDS011;68;48.792;9.164;2023-03-24T14:26:02;2.20;;;2.00;;
151;SDS011;68;48.792;9.164;2023-03-24T14:28:31;5.28;;;2.20;;
151;SDS011;68;48.792;9.164;2023-03-24T14:31:07;4.05;;;2.40;;
151;SDS011;68;48.792;9.164;2023-03-24T14:33:37;2.70;;;2.03;;
151;SDS011;68;48.792;9.164;2023-03-24T14:36:06;3.08;;;2.15;;
151;SDS011;68;48.792;9.164;2023-03-24T14:38:39;2.60;;;2.03;;
151;SDS011;68;48.792;9.164;2023-03-24T14:41:11;2.85;;;2.00;;
151;SDS011;68;48.792;9.164;2023-03-24T14:43:52;3.08;;;2.20;;
151;SDS011;68;48.792;9.164;2023-03-24T14:46:42;3.20;;;2.10;;
151;SDS011;68;48.792;9.164;2023-03-24T14:49:19;2.72;;;2.15;;
151;SDS011;68;48.792;9.164;2023-03-24T14:51:53;3.60;;;1.95;;
151;SDS011;68;48.792;9.164;2023-03-24T14:54:27;5.20;;;2.47;;
151;SDS011;68;48.792;9.164;2023-03-24T14:56:59;3.20;;;2.20;;
151;SDS011;68;48.792;9.164;2023-03-24T14:59:29;4.72;;;2.00;;
151;SDS011;68;48.792;9.164;2023-03-24T15:02:03;2.83;;;2.00;;
151;SDS011;68;48.792;9.164;2023-03-24T15:04:40;3.88;;;2.10;;
151;SDS011;68;48.792;9.164;2023-03-24T15:07:10;3.05;;;2.00;;
151;SDS011;68;48.792;9.164;2023-03-24T15:09:39;2.60;;;2.10;;
151;SDS011;68;48.792;9.164;2023-03-24T15:12:14;6.03;;;2.33;;
151;SDS011;68;48.792;9.164;2023-03-24T15:14:41;1.92;;;1.90;;
151;SDS011;68;48.792;9.164;2023-03-24T15:17:15;4.65;;;2.13;;
151;SDS011;68;48.792;9.164;2023-03-24T15:19:48;5.28;;;1.83;;
151;SDS011;68;48.792;9.164;2023-03-24T15:22:18;2.50;;;2.30;;
151;SDS011;68;48.792;9.164;2023-03-24T15:24:45;4.63;;;2.55;;
151;SDS011;68;48.792;9.164;2023-03-24T15:27:17;3.55;;;2.17;;
151;SDS011;68;48.792;9.164;2023-03-24T15:29:52;4.70;;;3.33;;
151;SDS011;68;48.792;9.164;2023-03-24T15:32:22;3.28;;;2.78;;
151;SDS011;68;48.792;9.164;2023-03-24T15:34:51;7.30;;;2.88;;
151;SDS011;68;48.792;9.164;2023-03-24T15:37:21;3.67;;;2.65;;
151;SDS011;68;48.792;9.164;2023-03-24T15:39:49;2.58;;;2.40;;
151;SDS011;68;48.792;9.164;2023-03-24T15:42:19;2.65;;;2.40;;
151;SDS011;68;48.792;9.164;2023-03-24T15:44:48;3.22;;;2.50;;
151;SDS011;68;48.792;9.164;2023-03-24T15:47:18;2.97;;;2.67;;
151;SDS011;68;48.792;9.164;2023-03-24T15:49:48;11.50;;;5.82;;
151;SDS011;68;48.792;9.164;2023-03-24T15:52:26;3.95;;;3.42;;
151;SDS011;68;48.792;9.164;2023-03-24T15:54:55;3.65;;;3.00;;
151;SDS011;68;48.792;9.164;2023-03-24T15:57:25;3.55;;;2.55;;
151;SDS011;68;48.792;9.164;2023-03-24T16:00:03;3.55;;;3.15;;
151;SDS011;68;48.792;9.164;2023-03-24T16:02:38;3.80;;;3.50;;
151;SDS011;68;48.792;9.164;2023-03-24T16:05:12;2.97;;;2.47;;
151;SDS011;68;48.792;9.164;2023-03-24T16:07:51;2.90;;;2.40;;
151;SDS011;68;48.792;9.164;2023-03-24T16:10:27;3.33;;;2.45;;
151;SDS011;68;48.792;9.164;2023-03-24T16:12:58;2.65;;;2.40;;
151;SDS011;68;48.792;9.164;2023-03-24T16:15:36;2.95;;;2.58;;
151;SDS011;68;48.792;9.164;2023-03-24T16:18:03;5.10;;;2.53;;
151;SDS011;68;48.792;9.164;2023-03-24T16:20:30;2.55;;;2.30;;
151;SDS011;68;48.792;9.164;2023-03-24T16:22:58;3.90;;;2.42;;
151;SDS011;68;48.792;9.164;2023-03-24T16:25:25;3.95;;;2.83;;
151;SDS011;68;48.792;9.164;2023-03-24T16:27:51;5.30;;;2.30;;
151;SDS011;68;48.792;9.164;2023-03-24T16:30:19;2.67;;;2.47;;
151;SDS011;68;48.792;9.164;2023-03-24T16:32:49;5.93;;;3.15;;
151;SDS011;68;48.792;9.164;2023-03-24T16:35:16;4.05;;;3.10;;
151;SDS011;68;48.792;9.164;2023-03-24T16:37:43;3.17;;;2.70;;
151;SDS011;68;48.792;9.164;2023-03-24T16:40:18;3.35;;;2.70;;
151;SDS011;68;48.792;9.164;2023-03-24T16:42:47;5.60;;;3.05;;